sensor_id;sensor_type;location;lat;lon;timestamp;temperature;humidity
35593;DHT22;64447;52.140;5.602;2023-12-04T00:00:37;2.60;99.90
35593;DHT22;64447;52.140;5.602;2023-12-04T00:03:02;2.60;99.90
35593;DHT22;64447;52.140;5.602;2023-12-04T00:05:28;2.60;99.90
35593;DHT22;64447;52.140;5.602;2023-12-04T00:07:54;2.70;99.90
35593;DHT22;64447;52.140;5.602;2023-12-04T00:10:20;2.70;99.90
35593;DHT22;64447;52.140;5.602;2023-12-04T00:12:45;2.60;99.90
35593;DHT22;64447;52.140;5.602;2023-12-04T00:15:11;2.60;99.90
35593;DHT22;64447;52.140;5.602;2023-12-04T00:17:37;2.70;99.90
35593;DHT22;64447;52.140;5.602;2023-12-04T00:20:07;2.70;99.90
35593;DHT22;64447;52.140;5.602;2023-12-04T00:22:33;2.70;99.90
35593;DHT22;64447;52.140;5.602;2023-12-04T00:24:59;2.70;99.90
35593;DHT22;64447;52.140;5.602;2023-12-04T00:27:24;2.40;99.90
35593;DHT22;64447;52.140;5.602;2023-12-04T00:29:53;2.60;99.90
35593;DHT22;64447;52.140;5.602;2023-12-04T00:32:18;2.50;99.90
35593;DHT22;64447;52.140;5.602;2023-12-04T00:34:44;2.50;99.90
35593;DHT22;64447;52.140;5.602;2023-12-04T00:37:09;2.60;99.90
35593;DHT22;64447;52.140;5.602;2023-12-04T00:39:35;2.60;99.90
35593;DHT22;64447;52.140;5.602;2023-12-04T00:42:01;2.70;99.90
35593;DHT22;64447;52.140;5.602;2023-12-04T00:44:26;2.80;99.90
35593;DHT22;64447;52.140;5.602;2023-12-04T00:46:52;2.70;99.90
35593;DHT22;64447;52.140;5.602;2023-12-04T00:49:18;2.70;99.90
35593;DHT22;64447;52.140;5.602;2023-12-04T00:51:44;2.60;99.90
35593;DHT22;64447;52.140;5.602;2023-12-04T00:54:10;2.60;99.90
35593;DHT22;64447;52.140;5.602;2023-12-04T00:56:38;2.70;99.90
35593;DHT22;64447;52.140;5.602;2023-12-04T00:59:05;2.70;99.90
35593;DHT22;64447;52.140;5.602;2023-12-04T01:01:32;2.70;99.90
35593;DHT22;64447;52.140;5.602;2023-12-04T01:03:58;2.70;99.90
35593;DHT22;64447;52.140;5.602;2023-12-04T01:06:25;2.60;99.90
35593;DHT22;64447;52.140;5.602;2023-12-04T01:08:52;2.50;99.90
35593;DHT22;64447;52.140;5.602;2023-12-04T01:11:18;2.60;99.90
35593;DHT22;64447;52.140;5.602;2023-12-04T01:13:45;2.70;99.90
35593;DHT22;64447;52.140;5.602;2023-12-04T01:16:10;2.70;99.90
35593;DHT22;64447;52.140;5.602;2023-12-04T01:18:36;2.60;99.90
35593;DHT22;64447;52.140;5.602;2023-12-04T01:21:02;2.60;99.90
35593;DHT22;64447;52.140;5.602;2023-12-04T01:23:28;2.70;99.90
35593;DHT22;64447;52.140;5.602;2023-12-04T01:25:53;2.90;99.90
35593;DHT22;64447;52.140;5.602;2023-12-04T01:28:19;3.00;99.90
35593;DHT22;64447;52.140;5.602;2023-12-04T01:30:44;2.90;99.90
35593;DHT22;64447;52.140;5.602;2023-12-04T01:33:10;3.10;99.90
35593;DHT22;64447;52.140;5.602;2023-12-04T01:35:36;3.00;99.90
35593;DHT22;64447;52.140;5.602;2023-12-04T01:38:01;3.00;99.90
35593;DHT22;64447;52.140;5.602;2023-12-04T01:40:27;3.00;99.90
35593;DHT22;64447;52.140;5.602;2023-12-04T01:42:53;3.00;99.90
35593;DHT22;64447;52.140;5.602;2023-12-04T01:45:18;2.90;99.90
35593;DHT22;64447;52.140;5.602;2023-12-04T01:47:45;3.00;99.90
35593;DHT22;64447;52.140;5.602;2023-12-04T01:50:12;2.70;99.90
35593;DHT22;64447;52.140;5.602;2023-12-04T01:52:38;2.80;99.90
35593;DHT22;64447;52.140;5.602;2023-12-04T01:55:05;2.90;99.90
35593;DHT22;64447;52.140;5.602;2023-12-04T01:57:31;2.80;99.90
35593;DHT22;64447;52.140;5.602;2023-12-04T01:59:57;2.90;99.90
35593;DHT22;64447;52.140;5.602;2023-12-04T02:02:23;2.90;99.90
35593;DHT22;64447;52.140;5.602;2023-12-04T02:04:49;2.80;99.90
35593;DHT22;64447;52.140;5.602;2023-12-04T02:07:14;2.80;99.90
35593;DHT22;64447;52.140;5.602;2023-12-04T02:09:40;2.80;99.90
35593;DHT22;64447;52.140;5.602;2023-12-04T02:12:06;2.90;99.90
35593;DHT22;64447;52.140;5.602;2023-12-04T02:14:31;3.10;99.90
35593;DHT22;64447;52.140;5.602;2023-12-04T02:16:58;3.10;99.90
35593;DHT22;64447;52.140;5.602;2023-12-04T02:19:26;3.50;99.90
35593;DHT22;64447;52.140;5.602;2023-12-04T02:21:52;3.30;99.90
35593;DHT22;64447;52.140;5.602;2023-12-04T02:24:17;3.30;99.90
35593;DHT22;64447;52.140;5.602;2023-12-04T02:26:58;3.20;99.90
35593;DHT22;64447;52.140;5.602;2023-12-04T02:29:31;3.40;99.90
35593;DHT22;64447;52.140;5.602;2023-12-04T02:31:58;3.20;99.90
35593;DHT22;64447;52.140;5.602;2023-12-04T02:34:27;3.00;99.90
35593;DHT22;64447;52.140;5.602;2023-12-04T02:36:55;2.90;99.90
35593;DHT22;64447;52.140;5.602;2023-12-04T02:39:22;2.80;99.90
35593;DHT22;64447;52.140;5.602;2023-12-04T02:41:48;3.00;99.90
35593;DHT22;64447;52.140;5.602;2023-12-04T02:44:14;3.10;99.90
35593;DHT22;64447;52.140;5.602;2023-12-04T02:46:39;3.10;99.90
35593;DHT22;64447;52.140;5.602;2023-12-04T02:49:05;3.00;99.90
35593;DHT22;64447;52.140;5.602;2023-12-04T02:51:31;2.90;99.90
35593;DHT22;64447;52.140;5.602;2023-12-04T02:53:56;3.10;99.90
35593;DHT22;64447;52.140;5.602;2023-12-04T02:56:22;3.40;99.90
35593;DHT22;64447;52.140;5.602;2023-12-04T02:58:48;3.30;99.90
35593;DHT22;64447;52.140;5.602;2023-12-04T03:01:13;3.10;99.90
35593;DHT22;64447;52.140;5.602;2023-12-04T03:03:39;3.20;99.90
35593;DHT22;64447;52.140;5.602;2023-12-04T03:06:05;3.40;99.90
35593;DHT22;64447;52.140;5.602;2023-12-04T03:08:31;3.40;99.90
35593;DHT22;64447;52.140;5.602;2023-12-04T03:10:57;3.40;99.90
35593;DHT22;64447;52.140;5.602;2023-12-04T03:13:22;3.40;99.90
35593;DHT22;64447;52.140;5.602;2023-12-04T03:15:48;3.40;99.90
35593;DHT22;64447;52.140;5.602;2023-12-04T03:18:13;3.40;99.90
35593;DHT22;64447;52.140;5.602;2023-12-04T03:20:39;3.30;99.90
35593;DHT22;64447;52.140;5.602;2023-12-04T03:23:05;3.20;99.90
35593;DHT22;64447;52.140;5.602;2023-12-04T03:25:30;3.30;99.90
35593;DHT22;64447;52.140;5.602;2023-12-04T03:27:56;3.30;99.90
35593;DHT22;64447;52.140;5.602;2023-12-04T03:30:21;3.10;99.90
35593;DHT22;64447;52.140;5.602;2023-12-04T03:32:47;3.00;99.90
35593;DHT22;64447;52.140;5.602;2023-12-04T03:35:13;3.00;99.90
35593;DHT22;64447;52.140;5.602;2023-12-04T03:37:38;3.20;99.90
35593;DHT22;64447;52.140;5.602;2023-12-04T03:40:04;3.20;99.90
35593;DHT22;64447;52.140;5.602;2023-12-04T03:42:30;3.20;99.90
35593;DHT22;64447;52.140;5.602;2023-12-04T03:44:56;3.20;99.90
35593;DHT22;64447;52.140;5.602;2023-12-04T03:47:22;3.00;99.90
35593;DHT22;64447;52.140;5.602;2023-12-04T03:49:48;3.10;99.90
35593;DHT22;64447;52.140;5.602;2023-12-04T03:52:14;3.00;99.90
35593;DHT22;64447;52.140;5.602;2023-12-04T03:54:40;2.80;99.90
35593;DHT22;64447;52.140;5.602;2023-12-04T03:57:05;2.70;99.90
35593;DHT22;64447;52.140;5.602;2023-12-04T03:59:31;2.60;99.90
35593;DHT22;64447;52.140;5.602;2023-12-04T04:01:57;2.70;99.90
35593;DHT22;64447;52.140;5.602;2023-12-04T04:04:22;2.80;99.90
35593;DHT22;64447;52.140;5.602;2023-12-04T04:06:48;2.80;99.90
35593;DHT22;64447;52.140;5.602;2023-12-04T04:09:13;2.90;99.90
35593;DHT22;64447;52.140;5.602;2023-12-04T04:11:40;2.80;99.90
35593;DHT22;64447;52.140;5.602;2023-12-04T04:14:05;2.70;99.90
35593;DHT22;64447;52.140;5.602;2023-12-04T04:16:31;2.70;99.90
35593;DHT22;64447;52.140;5.602;2023-12-04T04:18:57;2.90;99.90
35593;DHT22;64447;52.140;5.602;2023-12-04T04:21:22;2.70;99.90
35593;DHT22;64447;52.140;5.602;2023-12-04T04:23:48;2.80;99.90
35593;DHT22;64447;52.140;5.602;2023-12-04T04:26:14;2.90;99.90
35593;DHT22;64447;52.140;5.602;2023-12-04T04:28:39;2.80;99.90
35593;DHT22;64447;52.140;5.602;2023-12-04T04:31:05;2.70;99.90
35593;DHT22;64447;52.140;5.602;2023-12-04T04:33:31;2.50;99.90
35593;DHT22;64447;52.140;5.602;2023-12-04T04:35:56;2.60;99.90
35593;DHT22;64447;52.140;5.602;2023-12-04T04:38:22;2.40;99.90
35593;DHT22;64447;52.140;5.602;2023-12-04T04:40:47;2.60;99.90
35593;DHT22;64447;52.140;5.602;2023-12-04T04:43:13;2.80;99.90
35593;DHT22;64447;52.140;5.602;2023-12-04T04:45:39;2.90;99.90
35593;DHT22;64447;52.140;5.602;2023-12-04T04:48:04;2.80;99.90
35593;DHT22;64447;52.140;5.602;2023-12-04T04:50:30;2.50;99.90
35593;DHT22;64447;52.140;5.602;2023-12-04T04:52:56;2.60;99.90
35593;DHT22;64447;52.140;5.602;2023-12-04T04:55:21;2.60;99.90
35593;DHT22;64447;52.140;5.602;2023-12-04T04:57:47;2.50;99.90
35593;DHT22;64447;52.140;5.602;2023-12-04T05:00:13;2.50;99.90
35593;DHT22;64447;52.140;5.602;2023-12-04T05:02:38;2.60;99.90
35593;DHT22;64447;52.140;5.602;2023-12-04T05:05:04;2.50;99.90
35593;DHT22;64447;52.140;5.602;2023-12-04T05:07:30;2.50;99.90
35593;DHT22;64447;52.140;5.602;2023-12-04T05:09:56;2.40;99.90
35593;DHT22;64447;52.140;5.602;2023-12-04T05:12:21;2.30;99.90
35593;DHT22;64447;52.140;5.602;2023-12-04T05:14:47;2.30;99.90
35593;DHT22;64447;52.140;5.602;2023-12-04T05:17:12;2.40;99.90
35593;DHT22;64447;52.140;5.602;2023-12-04T05:19:38;2.40;99.90
35593;DHT22;64447;52.140;5.602;2023-12-04T05:22:04;2.40;99.90
35593;DHT22;64447;52.140;5.602;2023-12-04T05:24:29;2.60;99.90
35593;DHT22;64447;52.140;5.602;2023-12-04T05:26:55;2.50;99.90
35593;DHT22;64447;52.140;5.602;2023-12-04T05:29:20;2.30;99.90
35593;DHT22;64447;52.140;5.602;2023-12-04T05:31:46;2.40;99.90
35593;DHT22;64447;52.140;5.602;2023-12-04T05:34:12;2.50;99.90
35593;DHT22;64447;52.140;5.602;2023-12-04T05:36:38;2.50;99.90
35593;DHT22;64447;52.140;5.602;2023-12-04T05:39:03;2.60;99.90
35593;DHT22;64447;52.140;5.602;2023-12-04T05:41:30;2.60;99.90
35593;DHT22;64447;52.140;5.602;2023-12-04T05:43:55;2.80;99.90
35593;DHT22;64447;52.140;5.602;2023-12-04T05:46:21;2.60;99.90
35593;DHT22;64447;52.140;5.602;2023-12-04T05:48:47;2.60;99.90
35593;DHT22;64447;52.140;5.602;2023-12-04T05:51:14;2.70;99.90
35593;DHT22;64447;52.140;5.602;2023-12-04T05:53:41;2.70;99.90
35593;DHT22;64447;52.140;5.602;2023-12-04T05:56:07;2.80;99.90
35593;DHT22;64447;52.140;5.602;2023-12-04T05:58:34;2.70;99.90
35593;DHT22;64447;52.140;5.602;2023-12-04T06:01:00;2.60;99.90
35593;DHT22;64447;52.140;5.602;2023-12-04T06:03:26;2.60;99.90
35593;DHT22;64447;52.140;5.602;2023-12-04T06:05:51;2.70;99.90
35593;DHT22;64447;52.140;5.602;2023-12-04T06:08:17;2.70;99.90
35593;DHT22;64447;52.140;5.602;2023-12-04T06:10:43;2.60;99.90
35593;DHT22;64447;52.140;5.602;2023-12-04T06:13:08;2.60;99.90
35593;DHT22;64447;52.140;5.602;2023-12-04T06:15:34;2.60;99.90
35593;DHT22;64447;52.140;5.602;2023-12-04T06:18:00;2.60;99.90
35593;DHT22;64447;52.140;5.602;2023-12-04T06:20:25;2.60;99.90
35593;DHT22;64447;52.140;5.602;2023-12-04T06:22:51;2.60;99.90
35593;DHT22;64447;52.140;5.602;2023-12-04T06:25:17;2.60;99.90
35593;DHT22;64447;52.140;5.602;2023-12-04T06:27:44;2.50;99.90
35593;DHT22;64447;52.140;5.602;2023-12-04T06:30:10;2.50;99.90
35593;DHT22;64447;52.140;5.602;2023-12-04T06:32:36;2.50;99.90
35593;DHT22;64447;52.140;5.602;2023-12-04T06:35:02;2.70;99.90
35593;DHT22;64447;52.140;5.602;2023-12-04T06:37:29;2.60;99.90
35593;DHT22;64447;52.140;5.602;2023-12-04T06:39:59;2.50;99.90
35593;DHT22;64447;52.140;5.602;2023-12-04T06:42:25;2.50;99.90
35593;DHT22;64447;52.140;5.602;2023-12-04T06:44:51;2.40;99.90
35593;DHT22;64447;52.140;5.602;2023-12-04T06:47:19;2.50;99.90
35593;DHT22;64447;52.140;5.602;2023-12-04T06:49:47;2.40;99.90
35593;DHT22;64447;52.140;5.602;2023-12-04T06:52:13;2.50;99.90
35593;DHT22;64447;52.140;5.602;2023-12-04T06:54:38;2.60;99.90
35593;DHT22;64447;52.140;5.602;2023-12-04T06:57:04;2.90;99.90
35593;DHT22;64447;52.140;5.602;2023-12-04T06:59:30;2.50;99.90
35593;DHT22;64447;52.140;5.602;2023-12-04T07:01:55;2.50;99.90
35593;DHT22;64447;52.140;5.602;2023-12-04T07:04:21;2.50;99.90
35593;DHT22;64447;52.140;5.602;2023-12-04T07:06:47;2.50;99.90
35593;DHT22;64447;52.140;5.602;2023-12-04T07:09:14;2.70;99.90
35593;DHT22;64447;52.140;5.602;2023-12-04T07:11:39;2.70;99.90
35593;DHT22;64447;52.140;5.602;2023-12-04T07:14:05;2.70;99.90
35593;DHT22;64447;52.140;5.602;2023-12-04T07:16:31;2.70;99.90
35593;DHT22;64447;52.140;5.602;2023-12-04T07:18:56;2.80;99.90
35593;DHT22;64447;52.140;5.602;2023-12-04T07:21:22;3.10;99.90
35593;DHT22;64447;52.140;5.602;2023-12-04T07:23:47;2.70;99.90
35593;DHT22;64447;52.140;5.602;2023-12-04T07:26:13;2.80;99.90
35593;DHT22;64447;52.140;5.602;2023-12-04T07:28:39;2.70;99.90
35593;DHT22;64447;52.140;5.602;2023-12-04T07:31:04;2.70;99.90
35593;DHT22;64447;52.140;5.602;2023-12-04T07:33:30;2.70;99.90
35593;DHT22;64447;52.140;5.602;2023-12-04T07:35:56;2.70;99.90
35593;DHT22;64447;52.140;5.602;2023-12-04T07:38:22;2.60;99.90
35593;DHT22;64447;52.140;5.602;2023-12-04T07:40:47;2.60;99.90
35593;DHT22;64447;52.140;5.602;2023-12-04T07:43:13;2.70;99.90
35593;DHT22;64447;52.140;5.602;2023-12-04T07:45:40;2.70;99.90
35593;DHT22;64447;52.140;5.602;2023-12-04T07:48:06;2.70;99.90
35593;DHT22;64447;52.140;5.602;2023-12-04T07:50:32;2.60;99.90
35593;DHT22;64447;52.140;5.602;2023-12-04T07:52:57;2.50;99.90
35593;DHT22;64447;52.140;5.602;2023-12-04T07:55:23;2.70;99.90
35593;DHT22;64447;52.140;5.602;2023-12-04T07:57:49;2.50;99.90
35593;DHT22;64447;52.140;5.602;2023-12-04T08:00:16;2.70;99.90
35593;DHT22;64447;52.140;5.602;2023-12-04T08:02:43;2.70;99.90
35593;DHT22;64447;52.140;5.602;2023-12-04T08:05:10;2.80;99.90
35593;DHT22;64447;52.140;5.602;2023-12-04T08:07:36;2.70;99.90
35593;DHT22;64447;52.140;5.602;2023-12-04T08:10:01;2.60;99.90
35593;DHT22;64447;52.140;5.602;2023-12-04T08:12:27;2.70;99.90
35593;DHT22;64447;52.140;5.602;2023-12-04T08:14:53;2.80;99.90
35593;DHT22;64447;52.140;5.602;2023-12-04T08:17:19;3.00;99.90
35593;DHT22;64447;52.140;5.602;2023-12-04T08:19:44;3.00;99.90
35593;DHT22;64447;52.140;5.602;2023-12-04T08:22:10;3.10;99.90
35593;DHT22;64447;52.140;5.602;2023-12-04T08:24:36;3.10;99.90
35593;DHT22;64447;52.140;5.602;2023-12-04T08:27:01;2.90;99.90
35593;DHT22;64447;52.140;5.602;2023-12-04T08:29:27;3.00;99.90
35593;DHT22;64447;52.140;5.602;2023-12-04T08:31:52;2.90;99.90
35593;DHT22;64447;52.140;5.602;2023-12-04T08:34:18;2.80;99.90
35593;DHT22;64447;52.140;5.602;2023-12-04T08:36:44;2.80;99.90
35593;DHT22;64447;52.140;5.602;2023-12-04T08:39:09;2.70;99.90
35593;DHT22;64447;52.140;5.602;2023-12-04T08:41:35;2.80;99.90
35593;DHT22;64447;52.140;5.602;2023-12-04T08:44:01;2.80;99.90
35593;DHT22;64447;52.140;5.602;2023-12-04T08:46:27;2.80;99.90
35593;DHT22;64447;52.140;5.602;2023-12-04T08:48:52;2.90;99.90
35593;DHT22;64447;52.140;5.602;2023-12-04T08:51:19;2.90;99.90
35593;DHT22;64447;52.140;5.602;2023-12-04T08:53:44;2.80;99.90
35593;DHT22;64447;52.140;5.602;2023-12-04T08:56:10;2.80;99.90
35593;DHT22;64447;52.140;5.602;2023-12-04T08:58:36;2.90;99.90
35593;DHT22;64447;52.140;5.602;2023-12-04T09:01:02;2.90;99.90
35593;DHT22;64447;52.140;5.602;2023-12-04T09:03:29;3.00;99.90
35593;DHT22;64447;52.140;5.602;2023-12-04T09:05:57;3.10;99.90
35593;DHT22;64447;52.140;5.602;2023-12-04T09:08:23;3.10;99.90
35593;DHT22;64447;52.140;5.602;2023-12-04T09:10:51;3.30;99.90
35593;DHT22;64447;52.140;5.602;2023-12-04T09:13:16;3.30;99.90
35593;DHT22;64447;52.140;5.602;2023-12-04T09:15:42;3.50;99.90
35593;DHT22;64447;52.140;5.602;2023-12-04T09:18:07;3.50;99.90
35593;DHT22;64447;52.140;5.602;2023-12-04T09:20:34;3.70;99.90
35593;DHT22;64447;52.140;5.602;2023-12-04T09:22:59;3.80;99.90
35593;DHT22;64447;52.140;5.602;2023-12-04T09:25:25;3.70;99.90
35593;DHT22;64447;52.140;5.602;2023-12-04T09:27:51;3.60;99.90
35593;DHT22;64447;52.140;5.602;2023-12-04T09:30:16;3.60;99.90
35593;DHT22;64447;52.140;5.602;2023-12-04T09:32:42;3.60;99.90
35593;DHT22;64447;52.140;5.602;2023-12-04T09:35:09;3.70;99.90
35593;DHT22;64447;52.140;5.602;2023-12-04T09:37:35;3.70;99.90
35593;DHT22;64447;52.140;5.602;2023-12-04T09:40:01;3.70;99.90
35593;DHT22;64447;52.140;5.602;2023-12-04T09:42:26;3.60;99.90
35593;DHT22;64447;52.140;5.602;2023-12-04T09:44:53;3.90;99.90
35593;DHT22;64447;52.140;5.602;2023-12-04T09:47:20;3.90;99.90
35593;DHT22;64447;52.140;5.602;2023-12-04T09:49:47;3.70;99.90
35593;DHT22;64447;52.140;5.602;2023-12-04T09:52:14;3.70;99.90
35593;DHT22;64447;52.140;5.602;2023-12-04T09:54:40;3.70;99.90
35593;DHT22;64447;52.140;5.602;2023-12-04T09:57:06;4.00;99.90
35593;DHT22;64447;52.140;5.602;2023-12-04T09:59:32;3.80;99.90
35593;DHT22;64447;52.140;5.602;2023-12-04T10:01:59;4.00;99.90
35593;DHT22;64447;52.140;5.602;2023-12-04T10:04:25;3.80;99.90
35593;DHT22;64447;52.140;5.602;2023-12-04T10:06:51;3.80;99.90
35593;DHT22;64447;52.140;5.602;2023-12-04T10:09:18;3.90;99.90
35593;DHT22;64447;52.140;5.602;2023-12-04T10:11:47;3.90;99.90
35593;DHT22;64447;52.140;5.602;2023-12-04T10:14:15;3.90;99.90
35593;DHT22;64447;52.140;5.602;2023-12-04T10:16:42;4.00;99.90
35593;DHT22;64447;52.140;5.602;2023-12-04T10:19:15;4.10;99.90
35593;DHT22;64447;52.140;5.602;2023-12-04T10:21:42;4.20;99.90
35593;DHT22;64447;52.140;5.602;2023-12-04T10:24:07;4.10;99.90
35593;DHT22;64447;52.140;5.602;2023-12-04T10:26:34;4.20;99.90
35593;DHT22;64447;52.140;5.602;2023-12-04T10:29:01;4.30;99.90
35593;DHT22;64447;52.140;5.602;2023-12-04T10:31:34;4.30;99.90
35593;DHT22;64447;52.140;5.602;2023-12-04T10:34:02;4.40;99.90
35593;DHT22;64447;52.140;5.602;2023-12-04T10:36:28;4.20;99.90
35593;DHT22;64447;52.140;5.602;2023-12-04T10:39:00;4.60;99.90
35593;DHT22;64447;52.140;5.602;2023-12-04T10:41:26;4.20;99.90
35593;DHT22;64447;52.140;5.602;2023-12-04T10:43:53;4.20;99.90
35593;DHT22;64447;52.140;5.602;2023-12-04T10:46:21;4.20;99.90
35593;DHT22;64447;52.140;5.602;2023-12-04T10:48:48;4.10;99.90
35593;DHT22;64447;52.140;5.602;2023-12-04T10:51:15;4.20;99.90
35593;DHT22;64447;52.140;5.602;2023-12-04T10:53:43;4.10;99.90
35593;DHT22;64447;52.140;5.602;2023-12-04T10:56:13;4.10;99.90
35593;DHT22;64447;52.140;5.602;2023-12-04T10:58:41;4.10;99.90
35593;DHT22;64447;52.140;5.602;2023-12-04T11:01:08;4.00;99.90
35593;DHT22;64447;52.140;5.602;2023-12-04T11:03:43;4.20;99.90
35593;DHT22;64447;52.140;5.602;2023-12-04T11:06:11;4.30;99.90
35593;DHT22;64447;52.140;5.602;2023-12-04T11:08:39;4.40;99.90
35593;DHT22;64447;52.140;5.602;2023-12-04T11:11:12;4.20;99.90
35593;DHT22;64447;52.140;5.602;2023-12-04T11:13:40;4.30;99.90
35593;DHT22;64447;52.140;5.602;2023-12-04T11:16:31;4.20;99.90
35593;DHT22;64447;52.140;5.602;2023-12-04T11:19:32;4.20;99.90
35593;DHT22;64447;52.140;5.602;2023-12-04T11:22:00;4.20;99.90
35593;DHT22;64447;52.140;5.602;2023-12-04T11:24:27;4.30;99.90
35593;DHT22;64447;52.140;5.602;2023-12-04T11:26:54;4.20;99.90
35593;DHT22;64447;52.140;5.602;2023-12-04T11:29:20;4.10;99.90
35593;DHT22;64447;52.140;5.602;2023-12-04T11:31:47;4.20;99.90
35593;DHT22;64447;52.140;5.602;2023-12-04T11:34:12;4.10;99.90
35593;DHT22;64447;52.140;5.602;2023-12-04T11:36:38;4.10;99.90
35593;DHT22;64447;52.140;5.602;2023-12-04T11:39:09;4.10;99.90
35593;DHT22;64447;52.140;5.602;2023-12-04T11:41:40;4.10;99.90
35593;DHT22;64447;52.140;5.602;2023-12-04T11:44:12;4.10;99.90
35593;DHT22;64447;52.140;5.602;2023-12-04T11:47:02;4.10;99.90
35593;DHT22;64447;52.140;5.602;2023-12-04T11:49:30;4.20;99.90
35593;DHT22;64447;52.140;5.602;2023-12-04T11:52:00;4.10;99.90
35593;DHT22;64447;52.140;5.602;2023-12-04T11:54:28;4.00;99.90
35593;DHT22;64447;52.140;5.602;2023-12-04T11:59:38;4.10;99.90
35593;DHT22;64447;52.140;5.602;2023-12-04T12:02:10;4.10;99.90
35593;DHT22;64447;52.140;5.602;2023-12-04T12:04:37;4.10;99.90
35593;DHT22;64447;52.140;5.602;2023-12-04T12:07:05;4.10;99.90
35593;DHT22;64447;52.140;5.602;2023-12-04T12:09:32;4.10;99.90
35593;DHT22;64447;52.140;5.602;2023-12-04T12:12:03;4.70;99.90
35593;DHT22;64447;52.140;5.602;2023-12-04T12:14:29;4.20;99.90
35593;DHT22;64447;52.140;5.602;2023-12-04T12:16:57;4.20;99.90
35593;DHT22;64447;52.140;5.602;2023-12-04T12:19:23;4.10;99.90
35593;DHT22;64447;52.140;5.602;2023-12-04T12:21:49;4.10;99.90
35593;DHT22;64447;52.140;5.602;2023-12-04T12:24:17;4.20;99.90
35593;DHT22;64447;52.140;5.602;2023-12-04T12:26:44;4.20;99.90
35593;DHT22;64447;52.140;5.602;2023-12-04T12:29:11;4.30;99.90
35593;DHT22;64447;52.140;5.602;2023-12-04T12:31:37;4.30;99.90
35593;DHT22;64447;52.140;5.602;2023-12-04T12:34:03;4.30;99.90
35593;DHT22;64447;52.140;5.602;2023-12-04T12:36:29;4.20;99.90
35593;DHT22;64447;52.140;5.602;2023-12-04T12:38:56;4.40;99.90
35593;DHT22;64447;52.140;5.602;2023-12-04T12:41:21;4.50;99.90
35593;DHT22;64447;52.140;5.602;2023-12-04T12:43:51;4.60;99.90
35593;DHT22;64447;52.140;5.602;2023-12-04T12:46:17;4.60;99.90
35593;DHT22;64447;52.140;5.602;2023-12-04T12:48:43;4.50;99.90
35593;DHT22;64447;52.140;5.602;2023-12-04T12:51:09;4.50;99.90
35593;DHT22;64447;52.140;5.602;2023-12-04T12:53:36;4.40;99.90
35593;DHT22;64447;52.140;5.602;2023-12-04T12:56:03;4.30;99.90
35593;DHT22;64447;52.140;5.602;2023-12-04T12:58:29;4.30;99.90
35593;DHT22;64447;52.140;5.602;2023-12-04T13:00:55;4.30;99.90
35593;DHT22;64447;52.140;5.602;2023-12-04T13:03:21;4.60;99.90
35593;DHT22;64447;52.140;5.602;2023-12-04T13:05:47;4.10;99.90
35593;DHT22;64447;52.140;5.602;2023-12-04T13:08:12;4.00;99.90
35593;DHT22;64447;52.140;5.602;2023-12-04T13:10:40;4.10;99.90
35593;DHT22;64447;52.140;5.602;2023-12-04T13:13:10;4.00;99.90
35593;DHT22;64447;52.140;5.602;2023-12-04T13:15:36;3.80;99.90
35593;DHT22;64447;52.140;5.602;2023-12-04T13:18:02;3.80;99.90
35593;DHT22;64447;52.140;5.602;2023-12-04T13:20:28;4.00;99.90
35593;DHT22;64447;52.140;5.602;2023-12-04T13:22:53;4.10;99.90
35593;DHT22;64447;52.140;5.602;2023-12-04T13:25:19;4.00;99.90
35593;DHT22;64447;52.140;5.602;2023-12-04T13:27:46;3.90;99.90
35593;DHT22;64447;52.140;5.602;2023-12-04T13:30:12;4.00;99.90
35593;DHT22;64447;52.140;5.602;2023-12-04T13:32:38;3.90;99.90
35593;DHT22;64447;52.140;5.602;2023-12-04T13:35:04;4.00;99.90
35593;DHT22;64447;52.140;5.602;2023-12-04T13:37:34;4.00;99.90
35593;DHT22;64447;52.140;5.602;2023-12-04T13:40:02;4.10;99.90
35593;DHT22;64447;52.140;5.602;2023-12-04T13:42:38;4.10;99.90
35593;DHT22;64447;52.140;5.602;2023-12-04T13:45:22;4.10;99.90
35593;DHT22;64447;52.140;5.602;2023-12-04T13:47:48;4.00;99.90
35593;DHT22;64447;52.140;5.602;2023-12-04T13:50:15;3.80;99.90
35593;DHT22;64447;52.140;5.602;2023-12-04T13:52:41;3.80;99.90
35593;DHT22;64447;52.140;5.602;2023-12-04T13:55:08;3.80;99.90
35593;DHT22;64447;52.140;5.602;2023-12-04T13:57:44;3.60;99.90
35593;DHT22;64447;52.140;5.602;2023-12-04T14:00:28;3.70;99.90
35593;DHT22;64447;52.140;5.602;2023-12-04T14:02:54;3.70;99.90
35593;DHT22;64447;52.140;5.602;2023-12-04T14:05:25;3.80;99.90
35593;DHT22;64447;52.140;5.602;2023-12-04T14:07:51;3.80;99.90
35593;DHT22;64447;52.140;5.602;2023-12-04T14:10:17;3.90;99.90
35593;DHT22;64447;52.140;5.602;2023-12-04T14:12:43;4.00;99.90
35593;DHT22;64447;52.140;5.602;2023-12-04T14:15:10;4.00;99.90
35593;DHT22;64447;52.140;5.602;2023-12-04T14:17:35;4.00;99.90
35593;DHT22;64447;52.140;5.602;2023-12-04T14:20:02;4.00;99.90
35593;DHT22;64447;52.140;5.602;2023-12-04T14:22:36;4.00;99.90
35593;DHT22;64447;52.140;5.602;2023-12-04T14:25:02;4.10;99.90
35593;DHT22;64447;52.140;5.602;2023-12-04T14:27:28;3.90;99.90
35593;DHT22;64447;52.140;5.602;2023-12-04T14:29:53;3.80;99.90
35593;DHT22;64447;52.140;5.602;2023-12-04T14:32:19;3.80;99.90
35593;DHT22;64447;52.140;5.602;2023-12-04T14:34:45;4.10;99.90
35593;DHT22;64447;52.140;5.602;2023-12-04T14:37:11;4.00;99.90
35593;DHT22;64447;52.140;5.602;2023-12-04T14:39:36;3.90;99.90
35593;DHT22;64447;52.140;5.602;2023-12-04T14:42:02;3.80;99.90
35593;DHT22;64447;52.140;5.602;2023-12-04T14:44:28;3.90;99.90
35593;DHT22;64447;52.140;5.602;2023-12-04T14:46:53;4.00;99.90
35593;DHT22;64447;52.140;5.602;2023-12-04T14:49:19;4.10;99.90
35593;DHT22;64447;52.140;5.602;2023-12-04T14:51:45;4.00;99.90
35593;DHT22;64447;52.140;5.602;2023-12-04T14:54:13;3.90;99.90
35593;DHT22;64447;52.140;5.602;2023-12-04T14:57:03;3.90;99.90
35593;DHT22;64447;52.140;5.602;2023-12-04T14:59:44;4.10;99.90
35593;DHT22;64447;52.140;5.602;2023-12-04T15:02:13;4.10;99.90
35593;DHT22;64447;52.140;5.602;2023-12-04T15:04:59;4.00;99.90
35593;DHT22;64447;52.140;5.602;2023-12-04T15:07:43;4.00;99.90
35593;DHT22;64447;52.140;5.602;2023-12-04T15:10:09;3.90;99.90
35593;DHT22;64447;52.140;5.602;2023-12-04T15:12:53;3.80;99.90
35593;DHT22;64447;52.140;5.602;2023-12-04T15:15:37;3.80;99.90
35593;DHT22;64447;52.140;5.602;2023-12-04T15:18:21;3.80;99.90
35593;DHT22;64447;52.140;5.602;2023-12-04T15:21:04;3.60;99.90
35593;DHT22;64447;52.140;5.602;2023-12-04T15:23:30;3.80;99.90
35593;DHT22;64447;52.140;5.602;2023-12-04T15:25:56;3.70;99.90
35593;DHT22;64447;52.140;5.602;2023-12-04T15:28:22;3.60;99.90
35593;DHT22;64447;52.140;5.602;2023-12-04T15:30:48;3.60;99.90
35593;DHT22;64447;52.140;5.602;2023-12-04T15:33:14;3.60;99.90
35593;DHT22;64447;52.140;5.602;2023-12-04T15:35:40;3.70;99.90
35593;DHT22;64447;52.140;5.602;2023-12-04T15:38:07;3.70;99.90
35593;DHT22;64447;52.140;5.602;2023-12-04T15:40:33;3.60;99.90
35593;DHT22;64447;52.140;5.602;2023-12-04T15:43:00;3.80;99.90
35593;DHT22;64447;52.140;5.602;2023-12-04T15:45:26;3.80;99.90